createdAt,value
2018-05-31T00:00:15.820Z,8.25
2018-05-31T00:00:48.353Z,7.28
2018-05-31T00:01:20.871Z,7.72
2018-05-31T00:01:53.404Z,7.28
2018-05-31T00:02:25.961Z,7.10
2018-05-31T00:02:58.504Z,7.00
2018-05-31T00:03:31.823Z,7.32
2018-05-31T00:04:04.378Z,7.62
2018-05-31T00:04:36.911Z,7.53
2018-05-31T00:05:09.463Z,7.15
2018-05-31T00:05:42.010Z,7.65
2018-05-31T00:06:22.182Z,6.47
2018-05-31T00:06:54.749Z,6.75
2018-05-31T00:07:27.304Z,6.55
2018-05-31T00:08:00.622Z,6.95
2018-05-31T00:08:33.149Z,7.00
2018-05-31T00:09:05.690Z,6.90
2018-05-31T00:09:38.237Z,7.25
2018-05-31T00:10:10.841Z,7.05
2018-05-31T00:10:43.403Z,6.90
2018-05-31T00:11:15.985Z,6.85
2018-05-31T00:11:48.540Z,7.10
2018-05-31T00:12:21.115Z,7.27
2018-05-31T00:12:53.663Z,7.50
2018-05-31T00:13:26.208Z,6.90
2018-05-31T00:13:58.775Z,7.10
2018-05-31T00:14:31.307Z,7.10
2018-05-31T00:15:03.878Z,7.10
2018-05-31T00:15:36.459Z,7.18
2018-05-31T00:16:09.028Z,7.00
2018-05-31T00:16:41.598Z,7.30
2018-05-31T00:17:14.141Z,7.62
2018-05-31T00:17:46.676Z,7.20
2018-05-31T00:18:19.212Z,7.70
2018-05-31T00:18:51.746Z,7.80
2018-05-31T00:19:25.087Z,7.30
2018-05-31T00:19:57.660Z,7.50
2018-05-31T00:20:30.221Z,7.77
2018-05-31T00:21:03.087Z,8.30
2018-05-31T00:21:35.622Z,7.20
2018-05-31T00:22:08.183Z,7.32
2018-05-31T00:22:40.764Z,7.80
2018-05-31T00:23:13.330Z,7.32
2018-05-31T00:23:45.889Z,7.03
2018-05-31T00:24:18.459Z,7.28
2018-05-31T00:24:51.028Z,7.12
2018-05-31T00:25:23.589Z,7.07
2018-05-31T00:25:56.144Z,7.70
2018-05-31T00:26:29.049Z,7.13
2018-05-31T00:27:01.626Z,6.85
2018-05-31T00:27:41.105Z,7.05
2018-05-31T00:28:13.678Z,7.28
2018-05-31T00:28:46.219Z,7.60
2018-05-31T00:29:19.545Z,7.70
2018-05-31T00:29:52.124Z,7.90
2018-05-31T00:30:24.703Z,7.50
2018-05-31T00:30:57.256Z,7.53
2018-05-31T00:31:29.819Z,7.93
2018-05-31T00:32:02.382Z,7.97
2018-05-31T00:32:34.916Z,7.05
2018-05-31T00:33:07.481Z,7.78
2018-05-31T00:33:40.028Z,8.45
2018-05-31T00:34:12.609Z,7.68
2018-05-31T00:34:45.177Z,7.72
2018-05-31T00:35:17.740Z,7.97
2018-05-31T00:35:50.304Z,7.53
2018-05-31T00:36:22.859Z,8.10
2018-05-31T00:36:55.394Z,7.82
2018-05-31T00:37:27.939Z,7.78
2018-05-31T00:38:00.495Z,8.02
2018-05-31T00:38:33.048Z,8.33
2018-05-31T00:39:05.613Z,7.57
2018-05-31T00:39:38.148Z,7.82
2018-05-31T00:40:10.678Z,7.43
2018-05-31T00:40:43.219Z,7.40
2018-05-31T00:41:15.792Z,7.93
2018-05-31T00:41:48.319Z,7.97
2018-05-31T00:42:21.668Z,7.70
2018-05-31T00:42:54.214Z,7.07
2018-05-31T00:43:26.771Z,7.82
2018-05-31T00:43:59.313Z,8.65
2018-05-31T00:44:31.875Z,7.13
2018-05-31T00:45:04.403Z,7.30
2018-05-31T00:45:37.013Z,7.72
2018-05-31T00:46:09.585Z,7.15
2018-05-31T00:46:42.136Z,6.97
2018-05-31T00:47:14.699Z,7.32
2018-05-31T00:47:47.230Z,7.10
2018-05-31T00:48:19.806Z,7.45
2018-05-31T00:48:52.359Z,7.40
2018-05-31T00:49:24.906Z,7.50
2018-05-31T00:49:57.443Z,7.60
2018-05-31T00:50:30.739Z,7.20
2018-05-31T00:51:03.275Z,7.32
2018-05-31T00:51:35.829Z,7.35
2018-05-31T00:52:08.380Z,7.30
2018-05-31T00:52:40.944Z,7.68
2018-05-31T00:53:13.495Z,7.12
2018-05-31T00:53:46.048Z,7.25
2018-05-31T00:54:18.629Z,7.60
2018-05-31T00:54:51.159Z,8.50
2018-05-31T00:55:35.432Z,8.50
2018-05-31T00:56:16.712Z,8.82
2018-05-31T00:56:49.276Z,7.57
2018-05-31T00:57:21.857Z,8.63
2018-05-31T00:57:54.384Z,8.20
2018-05-31T00:58:26.916Z,7.53
2018-05-31T00:58:59.457Z,7.53
2018-05-31T00:59:32.010Z,7.60
2018-05-31T01:00:04.553Z,7.37
2018-05-31T01:00:37.123Z,7.72
2018-05-31T01:01:09.656Z,7.45
2018-05-31T01:01:42.248Z,8.10
2018-05-31T01:02:14.818Z,7.57
2018-05-31T01:02:47.696Z,7.62
2018-05-31T01:03:20.256Z,7.60
2018-05-31T01:03:52.822Z,7.37
2018-05-31T01:04:25.388Z,7.50
2018-05-31T01:04:57.959Z,7.82
2018-05-31T01:05:30.543Z,7.57
2018-05-31T01:06:03.091Z,7.30
2018-05-31T01:06:36.159Z,7.25
2018-05-31T01:07:08.730Z,8.25
2018-05-31T01:07:41.265Z,7.37
2018-05-31T01:08:13.833Z,7.75
2018-05-31T01:08:46.382Z,7.57
2018-05-31T01:09:19.737Z,7.78
2018-05-31T01:09:52.292Z,7.45
2018-05-31T01:10:24.844Z,7.03
2018-05-31T01:10:57.372Z,7.32
2018-05-31T01:11:29.901Z,8.05
2018-05-31T01:12:02.443Z,7.07
2018-05-31T01:12:35.997Z,7.47
2018-05-31T01:13:08.609Z,7.85
2018-05-31T01:13:41.197Z,7.80
2018-05-31T01:14:14.905Z,7.70
2018-05-31T01:14:47.560Z,7.15
2018-05-31T01:15:20.135Z,7.55
2018-05-31T01:15:52.709Z,7.75
2018-05-31T01:16:25.335Z,8.03
2018-05-31T01:16:57.917Z,7.90
2018-05-31T01:17:30.468Z,8.00
2018-05-31T01:18:03.040Z,8.00
2018-05-31T01:18:35.614Z,7.82
2018-05-31T01:19:09.000Z,6.80
2018-05-31T01:19:41.552Z,7.18
2018-05-31T01:20:14.120Z,7.45
2018-05-31T01:20:46.655Z,7.60
2018-05-31T01:21:19.964Z,7.70
2018-05-31T01:21:52.499Z,8.63
2018-05-31T01:22:25.121Z,7.70
2018-05-31T01:22:57.705Z,9.00
2018-05-31T01:23:30.291Z,9.10
2018-05-31T01:24:03.632Z,10.68
2018-05-31T01:24:36.212Z,10.43
2018-05-31T01:25:08.780Z,9.88
2018-05-31T01:25:41.354Z,9.80
2018-05-31T01:26:13.939Z,10.00
2018-05-31T01:26:46.491Z,10.07
2018-05-31T01:27:19.109Z,8.70
2018-05-31T01:27:52.013Z,7.45
2018-05-31T01:28:24.601Z,8.33
2018-05-31T01:28:59.350Z,8.25
2018-05-31T01:29:31.914Z,8.02
2018-05-31T01:30:04.480Z,8.02
2018-05-31T01:30:37.056Z,7.62
2018-05-31T01:31:09.597Z,8.77
2018-05-31T01:31:42.192Z,8.48
2018-05-31T01:32:16.298Z,7.87
2018-05-31T01:32:48.837Z,8.25
2018-05-31T01:33:21.424Z,9.00
2018-05-31T01:33:53.998Z,9.02
2018-05-31T01:34:28.616Z,8.53
2018-05-31T01:35:01.176Z,8.23
2018-05-31T01:35:34.476Z,8.80
2018-05-31T01:36:07.037Z,8.27
2018-05-31T01:36:39.585Z,8.68
2018-05-31T01:37:12.141Z,9.05
2018-05-31T01:37:44.703Z,8.00
2018-05-31T01:38:29.015Z,8.77
2018-05-31T01:39:01.560Z,8.23
2018-05-31T01:39:34.126Z,8.57
2018-05-31T01:40:06.655Z,7.80
2018-05-31T01:40:39.988Z,8.95
2018-05-31T01:41:12.536Z,7.95
2018-05-31T01:41:45.090Z,8.65
2018-05-31T01:42:17.628Z,8.13
2018-05-31T01:42:50.190Z,7.97
2018-05-31T01:43:22.765Z,8.57
2018-05-31T01:43:55.999Z,8.45
2018-05-31T01:44:28.959Z,8.47
2018-05-31T01:45:01.497Z,7.70
2018-05-31T01:45:34.066Z,7.80
2018-05-31T01:46:06.632Z,8.02
2018-05-31T01:46:39.283Z,8.77
2018-05-31T01:47:11.827Z,7.82
2018-05-31T01:47:44.413Z,7.90
2018-05-31T01:48:16.984Z,8.32
2018-05-31T01:48:49.576Z,8.10
2018-05-31T01:49:22.129Z,7.90
2018-05-31T01:49:54.674Z,8.07
2018-05-31T01:50:27.215Z,8.23
2018-05-31T01:51:00.564Z,8.60
2018-05-31T01:51:33.125Z,8.38
2018-05-31T01:52:05.689Z,8.02
2018-05-31T01:52:38.255Z,8.48
2018-05-31T01:53:10.808Z,10.02
2018-05-31T01:53:43.340Z,9.98
2018-05-31T01:54:15.891Z,9.13
2018-05-31T01:54:48.428Z,9.50
2018-05-31T01:55:21.025Z,10.80
2018-05-31T01:55:53.595Z,10.00
2018-05-31T01:56:26.128Z,9.63
2018-05-31T01:56:58.660Z,9.18
2018-05-31T01:57:31.213Z,9.00
2018-05-31T01:58:04.057Z,8.85
2018-05-31T01:58:36.593Z,8.27
2018-05-31T01:59:09.891Z,8.30
2018-05-31T01:59:42.455Z,8.57
2018-05-31T02:00:15.721Z,8.76
2018-05-31T02:00:48.470Z,8.80
2018-05-31T02:01:21.015Z,8.05
2018-05-31T02:01:53.540Z,8.40
2018-05-31T02:02:26.076Z,9.50
2018-05-31T02:02:59.380Z,9.77
2018-05-31T02:03:31.981Z,9.63
2018-05-31T02:04:04.537Z,8.75
2018-05-31T02:04:37.081Z,8.40
2018-05-31T02:05:09.995Z,8.65
2018-05-31T02:05:42.591Z,8.93
2018-05-31T02:06:15.162Z,10.20
2018-05-31T02:06:47.720Z,10.02
2018-05-31T02:07:20.289Z,9.73
2018-05-31T02:07:52.849Z,9.40
2018-05-31T02:08:25.428Z,9.70
2018-05-31T02:08:57.995Z,10.02
2018-05-31T02:09:30.554Z,10.00
2018-05-31T02:10:03.120Z,10.80
2018-05-31T02:10:35.672Z,10.60
2018-05-31T02:11:08.256Z,10.23
2018-05-31T02:11:40.835Z,10.75
2018-05-31T02:12:13.408Z,10.43
2018-05-31T02:12:45.996Z,10.05
2018-05-31T02:13:18.568Z,10.45
2018-05-31T02:13:51.883Z,9.88
2018-05-31T02:14:24.421Z,9.10
2018-05-31T02:14:56.984Z,9.52
2018-05-31T02:15:29.541Z,10.65
2018-05-31T02:16:02.104Z,10.45
2018-05-31T02:16:34.654Z,10.77
2018-05-31T02:17:07.229Z,10.73
2018-05-31T02:17:39.823Z,10.05
2018-05-31T02:18:12.373Z,10.90
2018-05-31T02:18:44.901Z,10.90
2018-05-31T02:19:17.439Z,10.60
2018-05-31T02:19:49.973Z,10.60
2018-05-31T02:20:22.536Z,11.40
2018-05-31T02:20:55.073Z,10.52
2018-05-31T02:21:27.606Z,10.82
2018-05-31T02:22:00.152Z,10.73
2018-05-31T02:22:32.719Z,10.93
2018-05-31T02:23:05.294Z,10.65
2018-05-31T02:23:37.850Z,11.48
2018-05-31T02:24:10.407Z,10.38
2018-05-31T02:24:42.947Z,10.55
2018-05-31T02:25:15.547Z,10.73
2018-05-31T02:25:48.123Z,10.70
2018-05-31T02:26:20.686Z,10.68
2018-05-31T02:26:53.379Z,10.85
2018-05-31T02:27:25.923Z,10.80
2018-05-31T02:27:58.616Z,10.98
2018-05-31T02:28:31.186Z,11.27
2018-05-31T02:29:05.125Z,10.98
2018-05-31T02:29:37.683Z,10.43
2018-05-31T02:30:10.252Z,10.73
2018-05-31T02:30:42.818Z,10.57
2018-05-31T02:31:15.394Z,11.18
2018-05-31T02:31:47.953Z,10.57
2018-05-31T02:32:20.504Z,10.63
2018-05-31T02:32:53.070Z,10.35
2018-05-31T02:33:25.658Z,10.07
2018-05-31T02:33:58.205Z,10.10
2018-05-31T02:34:30.744Z,10.37
2018-05-31T02:35:03.299Z,10.18
2018-05-31T02:35:35.854Z,9.88
2018-05-31T02:36:08.408Z,9.68
2018-05-31T02:36:40.970Z,10.13
2018-05-31T02:37:14.103Z,9.73
2018-05-31T02:37:46.681Z,9.98
2018-05-31T02:38:19.237Z,10.45
2018-05-31T02:38:51.806Z,10.10
2018-05-31T02:39:24.333Z,9.32
2018-05-31T02:39:56.910Z,9.95
2018-05-31T02:40:29.472Z,10.23
2018-05-31T02:41:02.027Z,9.73
2018-05-31T02:41:34.591Z,9.13
2018-05-31T02:42:07.174Z,9.13
2018-05-31T02:42:39.684Z,9.45
2018-05-31T02:43:13.016Z,10.18
2018-05-31T02:43:45.605Z,9.85
2018-05-31T02:44:18.205Z,9.90
2018-05-31T02:44:50.739Z,9.50
2018-05-31T02:45:23.268Z,9.85
2018-05-31T02:45:55.807Z,9.60
2018-05-31T02:46:28.390Z,9.00
2018-05-31T02:47:00.952Z,9.85
2018-05-31T02:47:33.518Z,9.32
2018-05-31T02:48:06.048Z,9.63
2018-05-31T02:48:38.588Z,9.35
2018-05-31T02:49:11.129Z,9.45
2018-05-31T02:49:43.676Z,9.40
2018-05-31T02:50:16.742Z,9.82
2018-05-31T02:50:49.275Z,9.20
2018-05-31T02:51:21.816Z,9.20
2018-05-31T02:51:55.541Z,9.20
2018-05-31T02:52:28.106Z,8.97
2018-05-31T02:53:00.649Z,8.63
2018-05-31T02:53:33.192Z,9.27
2018-05-31T02:54:05.759Z,9.55
2018-05-31T02:54:38.320Z,8.93
2018-05-31T02:55:11.386Z,9.13
2018-05-31T02:55:43.988Z,9.07
2018-05-31T02:56:16.538Z,9.00
2018-05-31T02:56:49.100Z,9.40
2018-05-31T02:57:21.655Z,9.20
2018-05-31T02:57:54.191Z,10.18
2018-05-31T02:58:26.752Z,9.03
2018-05-31T02:59:00.082Z,10.13
2018-05-31T02:59:32.644Z,9.63
2018-05-31T03:00:05.197Z,10.20
2018-05-31T03:00:37.753Z,10.82
2018-05-31T03:01:10.332Z,10.43
2018-05-31T03:01:42.941Z,11.38
2018-05-31T03:02:16.431Z,10.68
2018-05-31T03:02:48.981Z,10.70
2018-05-31T03:03:21.553Z,10.27
2018-05-31T03:03:54.083Z,10.68
2018-05-31T03:04:26.662Z,11.00
2018-05-31T03:04:59.231Z,11.23
2018-05-31T03:05:31.814Z,11.32
2018-05-31T03:06:04.361Z,11.93
2018-05-31T03:06:36.934Z,11.32
2018-05-31T03:07:09.463Z,11.00
2018-05-31T03:07:42.079Z,10.32
2018-05-31T03:08:14.626Z,11.07
2018-05-31T03:08:47.186Z,10.38
2018-05-31T03:09:19.751Z,10.55
2018-05-31T03:09:52.327Z,11.40
2018-05-31T03:10:24.894Z,11.82
2018-05-31T03:10:57.476Z,10.93
2018-05-31T03:11:30.012Z,11.10
2018-05-31T03:12:02.831Z,11.12
2018-05-31T03:12:35.407Z,11.30
2018-05-31T03:13:07.935Z,11.30
2018-05-31T03:13:40.507Z,11.80
2018-05-31T03:14:13.074Z,11.60
2018-05-31T03:14:45.648Z,11.50
2018-05-31T03:15:18.205Z,11.82
2018-05-31T03:15:50.785Z,12.52
2018-05-31T03:16:23.356Z,11.53
2018-05-31T03:16:55.926Z,11.75
2018-05-31T03:17:28.485Z,11.80
2018-05-31T03:18:01.044Z,11.80
2018-05-31T03:18:33.612Z,11.53
2018-05-31T03:19:06.177Z,11.75
2018-05-31T03:19:38.726Z,12.20
2018-05-31T03:20:11.909Z,11.98
2018-05-31T03:20:44.452Z,12.65
2018-05-31T03:21:16.991Z,12.27
2018-05-31T03:21:49.539Z,12.32
2018-05-31T03:22:22.103Z,12.05
2018-05-31T03:22:54.640Z,12.20
2018-05-31T03:23:27.191Z,12.57
2018-05-31T03:23:59.728Z,11.55
2018-05-31T03:24:32.312Z,11.77
2018-05-31T03:25:04.881Z,12.15
2018-05-31T03:25:37.427Z,10.73
2018-05-31T03:26:09.977Z,11.40
2018-05-31T03:26:42.559Z,10.75
2018-05-31T03:27:15.141Z,11.63
2018-05-31T03:27:47.670Z,11.18
2018-05-31T03:28:20.219Z,11.23
2018-05-31T03:28:52.774Z,10.45
2018-05-31T03:29:25.341Z,11.15
2018-05-31T03:29:57.881Z,11.27
2018-05-31T03:30:30.464Z,10.67
2018-05-31T03:31:03.018Z,11.00
2018-05-31T03:31:35.568Z,10.70
2018-05-31T03:32:08.150Z,10.90
2018-05-31T03:32:40.726Z,10.50
2018-05-31T03:33:13.284Z,11.43
2018-05-31T03:33:46.624Z,10.50
2018-05-31T03:34:19.193Z,11.15
2018-05-31T03:34:51.764Z,11.40
2018-05-31T03:35:24.307Z,11.00
2018-05-31T03:35:56.838Z,10.55
2018-05-31T03:36:29.402Z,10.73
2018-05-31T03:37:01.962Z,11.30
2018-05-31T03:37:34.532Z,10.48
2018-05-31T03:38:07.093Z,10.10
2018-05-31T03:38:39.661Z,10.18
2018-05-31T03:39:12.216Z,9.52
2018-05-31T03:39:44.784Z,9.48
2018-05-31T03:40:17.315Z,9.10
2018-05-31T03:40:49.888Z,9.02
2018-05-31T03:41:22.451Z,8.45
2018-05-31T03:41:55.006Z,7.50
2018-05-31T03:42:27.572Z,8.00
2018-05-31T03:43:00.132Z,7.82
2018-05-31T03:43:32.717Z,8.25
2018-05-31T03:44:05.250Z,8.10
2018-05-31T03:44:37.793Z,8.35
2018-05-31T03:45:10.811Z,8.25
2018-05-31T03:45:43.361Z,8.02
2018-05-31T03:46:15.934Z,8.18
2018-05-31T03:46:48.524Z,7.97
2018-05-31T03:47:21.847Z,7.37
2018-05-31T03:47:54.418Z,8.00
2018-05-31T03:48:27.024Z,8.00
2018-05-31T03:48:59.569Z,7.80
2018-05-31T03:49:32.143Z,7.82
2018-05-31T03:50:04.680Z,7.95
2018-05-31T03:50:37.256Z,8.10
2018-05-31T03:51:09.820Z,9.00
2018-05-31T03:51:42.359Z,7.95
2018-05-31T03:52:16.491Z,8.56
2018-05-31T03:52:49.039Z,8.68
2018-05-31T03:53:21.592Z,8.60
2018-05-31T03:53:54.191Z,8.93
2018-05-31T03:54:26.768Z,8.83
2018-05-31T03:54:59.303Z,8.80
2018-05-31T03:55:31.857Z,8.75
2018-05-31T03:56:04.433Z,9.10
2018-05-31T03:56:36.971Z,8.82
2018-05-31T03:57:09.517Z,9.38
2018-05-31T03:57:42.067Z,9.30
2018-05-31T03:58:14.625Z,9.25
2018-05-31T03:58:47.160Z,8.55
2018-05-31T03:59:19.723Z,8.38
2018-05-31T03:59:52.256Z,8.50
2018-05-31T04:00:25.773Z,8.63
2018-05-31T04:00:58.319Z,8.57
2018-05-31T04:01:30.934Z,8.65
2018-05-31T04:02:03.508Z,8.48
2018-05-31T04:02:36.096Z,8.80
2018-05-31T04:03:08.657Z,8.07
2018-05-31T04:03:41.219Z,8.23
2018-05-31T04:04:13.763Z,8.70
2018-05-31T04:04:46.364Z,8.95
2018-05-31T04:05:18.895Z,8.63
2018-05-31T04:05:51.436Z,7.82
2018-05-31T04:06:23.969Z,7.35
2018-05-31T04:06:57.300Z,7.70
2018-05-31T04:07:29.856Z,8.43
2018-05-31T04:08:02.448Z,7.68
2018-05-31T04:08:35.009Z,8.38
2018-05-31T04:09:07.568Z,8.40
2018-05-31T04:09:40.121Z,7.90
2018-05-31T04:10:12.883Z,7.95
2018-05-31T04:10:45.427Z,7.75
2018-05-31T04:11:18.017Z,7.62
2018-05-31T04:11:50.547Z,7.68
2018-05-31T04:12:23.071Z,7.57
2018-05-31T04:12:55.632Z,7.80
2018-05-31T04:13:28.183Z,7.37
2018-05-31T04:14:00.753Z,7.80
2018-05-31T04:14:33.289Z,7.63
2018-05-31T04:15:05.841Z,7.22
2018-05-31T04:15:39.197Z,7.40
2018-05-31T04:16:11.792Z,7.30
2018-05-31T04:16:44.378Z,7.07
2018-05-31T04:17:16.921Z,7.20
2018-05-31T04:17:49.478Z,6.87
2018-05-31T04:18:22.029Z,6.72
2018-05-31T04:18:54.657Z,7.45
2018-05-31T04:19:27.207Z,6.60
2018-05-31T04:19:59.773Z,6.25
2018-05-31T04:20:32.363Z,6.23
2018-05-31T04:21:05.714Z,6.10
2018-05-31T04:21:38.258Z,5.93
2018-05-31T04:22:10.841Z,6.28
2018-05-31T04:22:43.368Z,6.05
2018-05-31T04:23:15.903Z,6.20
2018-05-31T04:23:48.476Z,5.87
2018-05-31T04:24:21.804Z,5.60
2018-05-31T04:24:54.340Z,6.00
2018-05-31T04:25:26.897Z,5.68
2018-05-31T04:25:59.461Z,5.87
2018-05-31T04:26:32.036Z,6.10
2018-05-31T04:27:04.604Z,5.80
2018-05-31T04:27:37.144Z,5.62
2018-05-31T04:28:09.704Z,5.20
2018-05-31T04:28:42.253Z,6.00
2018-05-31T04:29:14.812Z,5.47
2018-05-31T04:29:47.376Z,6.18
2018-05-31T04:30:19.935Z,5.85
2018-05-31T04:30:52.504Z,5.35
2018-05-31T04:31:25.061Z,5.80
2018-05-31T04:31:57.620Z,5.90
2018-05-31T04:32:30.178Z,5.57
2018-05-31T04:33:03.068Z,5.70
2018-05-31T04:33:35.681Z,5.00
2018-05-31T04:34:08.203Z,5.28
2018-05-31T04:34:40.757Z,5.72
2018-05-31T04:35:13.332Z,5.57
2018-05-31T04:35:45.882Z,5.22
2018-05-31T04:36:18.450Z,5.87
2018-05-31T04:36:51.333Z,5.60
2018-05-31T04:37:23.855Z,5.40
2018-05-31T04:37:56.399Z,5.07
2018-05-31T04:38:28.951Z,4.93
2018-05-31T04:39:01.497Z,4.97
2018-05-31T04:39:34.044Z,5.15
2018-05-31T04:40:07.395Z,5.35
2018-05-31T04:40:39.929Z,5.57
2018-05-31T04:41:12.464Z,5.30
2018-05-31T04:41:45.028Z,4.90
2018-05-31T04:42:18.208Z,5.37
2018-05-31T04:42:50.768Z,4.70
2018-05-31T04:43:23.333Z,4.87
2018-05-31T04:43:55.930Z,4.87
2018-05-31T04:44:28.481Z,4.93
2018-05-31T04:45:01.070Z,4.37
2018-05-31T04:45:33.644Z,5.00
2018-05-31T04:46:06.212Z,4.93
2018-05-31T04:46:38.781Z,5.12
2018-05-31T04:47:11.410Z,4.60
2018-05-31T04:47:43.996Z,4.30
2018-05-31T04:48:16.595Z,4.87
2018-05-31T04:48:49.162Z,4.97
2018-05-31T04:49:21.748Z,4.47
2018-05-31T04:49:54.315Z,4.43
2018-05-31T04:50:26.879Z,4.50
2018-05-31T04:50:59.416Z,4.25
2018-05-31T04:51:32.008Z,4.37
2018-05-31T04:52:04.568Z,4.40
2018-05-31T04:52:37.169Z,4.20
2018-05-31T04:53:11.268Z,3.75
2018-05-31T04:53:43.836Z,4.35
2018-05-31T04:54:16.400Z,4.30
2018-05-31T04:54:48.960Z,4.62
2018-05-31T04:55:21.517Z,4.35
2018-05-31T04:55:54.085Z,4.10
2018-05-31T04:56:26.638Z,4.20
2018-05-31T04:56:59.175Z,4.10
2018-05-31T04:57:31.732Z,4.43
2018-05-31T04:58:04.266Z,4.05
2018-05-31T04:58:36.854Z,4.25
2018-05-31T04:59:09.415Z,4.37
2018-05-31T04:59:41.986Z,4.30
2018-05-31T05:00:14.520Z,4.10
2018-05-31T05:00:47.061Z,4.55
2018-05-31T05:01:19.634Z,4.12
2018-05-31T05:01:52.185Z,4.47
2018-05-31T05:02:24.742Z,4.43
2018-05-31T05:02:57.346Z,4.10
2018-05-31T05:03:29.874Z,5.00
2018-05-31T05:04:02.429Z,4.70
2018-05-31T05:04:34.955Z,4.50
2018-05-31T05:05:08.297Z,4.22
2018-05-31T05:05:40.844Z,4.82
2018-05-31T05:06:13.389Z,4.62
2018-05-31T05:06:45.965Z,4.82
2018-05-31T05:07:18.522Z,5.20
2018-05-31T05:07:51.106Z,4.18
2018-05-31T05:08:23.676Z,4.13
2018-05-31T05:08:56.256Z,4.20
2018-05-31T05:09:28.819Z,4.50
2018-05-31T05:10:01.371Z,4.28
2018-05-31T05:10:33.932Z,4.50
2018-05-31T05:11:06.516Z,4.30
2018-05-31T05:11:39.060Z,4.57
2018-05-31T05:12:11.632Z,5.03
2018-05-31T05:12:44.163Z,4.70
2018-05-31T05:13:16.720Z,5.20
2018-05-31T05:13:49.277Z,4.68
2018-05-31T05:14:21.814Z,4.60
2018-05-31T05:14:54.347Z,4.90
2018-05-31T05:15:26.916Z,5.70
2018-05-31T05:15:59.492Z,6.20
2018-05-31T05:16:32.048Z,5.03
2018-05-31T05:17:04.618Z,5.32
2018-05-31T05:17:37.160Z,5.43
2018-05-31T05:18:09.713Z,5.22
2018-05-31T05:18:42.272Z,5.70
2018-05-31T05:19:14.827Z,4.93
2018-05-31T05:19:47.388Z,4.80
2018-05-31T05:20:19.960Z,4.40
2018-05-31T05:20:52.511Z,3.83
2018-05-31T05:21:25.052Z,4.30
2018-05-31T05:21:57.638Z,3.90
2018-05-31T05:22:30.188Z,4.13
2018-05-31T05:23:02.733Z,4.10
2018-05-31T05:23:35.273Z,4.10
2018-05-31T05:24:07.820Z,4.47
2018-05-31T05:24:40.380Z,4.85
2018-05-31T05:25:12.973Z,5.37
2018-05-31T05:25:46.295Z,5.05
2018-05-31T05:26:18.847Z,5.40
2018-05-31T05:26:51.444Z,4.78
2018-05-31T05:27:23.992Z,4.82
2018-05-31T05:27:56.561Z,3.72
2018-05-31T05:28:29.096Z,4.63
2018-05-31T05:29:01.660Z,5.05
2018-05-31T05:29:34.229Z,3.92
2018-05-31T05:30:06.789Z,4.15
2018-05-31T05:30:39.340Z,3.92
2018-05-31T05:31:11.876Z,3.70
2018-05-31T05:31:44.431Z,5.70
2018-05-31T05:32:16.995Z,5.53
2018-05-31T05:32:49.555Z,5.55
2018-05-31T05:33:22.111Z,5.75
2018-05-31T05:33:54.663Z,4.75
2018-05-31T05:34:27.196Z,4.30
2018-05-31T05:34:59.807Z,4.20
2018-05-31T05:35:32.348Z,4.20
2018-05-31T05:36:04.908Z,4.45
2018-05-31T05:36:37.486Z,5.40
2018-05-31T05:37:10.039Z,6.20
2018-05-31T05:37:42.620Z,5.90
2018-05-31T05:38:16.093Z,6.50
2018-05-31T05:38:48.681Z,5.60
2018-05-31T05:39:21.203Z,6.22
2018-05-31T05:39:53.804Z,5.87
2018-05-31T05:40:26.366Z,5.93
2018-05-31T05:40:58.911Z,5.62
2018-05-31T05:41:31.463Z,5.12
2018-05-31T05:42:04.032Z,5.07
2018-05-31T05:42:36.591Z,4.65
2018-05-31T05:43:09.122Z,4.40
2018-05-31T05:43:41.695Z,4.80
2018-05-31T05:44:14.249Z,4.85
2018-05-31T05:44:46.810Z,5.07
2018-05-31T05:45:19.372Z,6.03
2018-05-31T05:45:51.938Z,5.20
2018-05-31T05:46:24.508Z,4.90
2018-05-31T05:46:57.039Z,5.15
2018-05-31T05:47:29.577Z,4.68
2018-05-31T05:48:02.179Z,5.00
2018-05-31T05:48:34.754Z,6.13
2018-05-31T05:49:07.292Z,7.57
2018-05-31T05:49:39.847Z,7.07
2018-05-31T05:50:12.428Z,8.40
2018-05-31T05:50:44.949Z,7.97
2018-05-31T05:51:17.503Z,7.35
2018-05-31T05:51:50.061Z,7.45
2018-05-31T05:52:22.641Z,7.70
2018-05-31T05:52:55.175Z,7.60
2018-05-31T05:53:27.764Z,7.07
2018-05-31T05:54:00.314Z,7.25
2018-05-31T05:54:32.869Z,6.50
2018-05-31T05:55:05.469Z,6.03
2018-05-31T05:55:38.018Z,6.12
2018-05-31T05:56:10.559Z,5.82
2018-05-31T05:56:43.883Z,6.12
2018-05-31T05:57:16.452Z,5.07
2018-05-31T05:57:49.000Z,4.90
2018-05-31T05:58:21.591Z,4.70
2018-05-31T05:58:54.145Z,4.30
2018-05-31T05:59:26.675Z,4.97
2018-05-31T05:59:59.240Z,4.93
2018-05-31T06:00:31.785Z,5.23
2018-05-31T06:01:04.328Z,5.68
2018-05-31T06:01:36.897Z,4.72
2018-05-31T06:02:09.432Z,4.55
2018-05-31T06:02:42.009Z,4.68
2018-05-31T06:03:14.547Z,4.45
2018-05-31T06:03:47.133Z,4.72
2018-05-31T06:04:19.705Z,4.72
2018-05-31T06:04:53.037Z,5.03
2018-05-31T06:05:25.563Z,5.43
2018-05-31T06:05:58.855Z,4.53
2018-05-31T06:06:31.406Z,4.80
2018-05-31T06:07:03.941Z,4.50
2018-05-31T06:07:36.499Z,4.00
2018-05-31T06:08:09.050Z,4.22
2018-05-31T06:08:41.620Z,3.85
2018-05-31T06:09:14.168Z,3.62
2018-05-31T06:09:46.729Z,3.22
2018-05-31T06:10:19.327Z,3.35
2018-05-31T06:10:51.876Z,3.22
2018-05-31T06:11:24.419Z,3.25
2018-05-31T06:11:56.985Z,3.20
2018-05-31T06:12:29.552Z,3.10
2018-05-31T06:13:02.152Z,3.25
2018-05-31T06:13:34.728Z,3.20
2018-05-31T06:14:07.303Z,3.00
2018-05-31T06:14:39.858Z,3.12
2018-05-31T06:15:13.203Z,3.37
2018-05-31T06:15:45.750Z,3.00
2018-05-31T06:16:18.297Z,3.10
2018-05-31T06:16:50.834Z,3.05
2018-05-31T06:17:24.149Z,2.67
2018-05-31T06:17:56.711Z,3.00
2018-05-31T06:18:29.275Z,3.20
2018-05-31T06:19:01.872Z,3.33
2018-05-31T06:19:34.444Z,3.08
2018-05-31T06:20:07.011Z,2.90
2018-05-31T06:20:39.567Z,3.15
2018-05-31T06:21:12.141Z,3.10
2018-05-31T06:21:44.665Z,2.83
2018-05-31T06:22:17.249Z,2.85
2018-05-31T06:22:49.793Z,3.42
2018-05-31T06:23:22.348Z,3.20
2018-05-31T06:23:54.903Z,3.30
2018-05-31T06:24:27.465Z,3.40
2018-05-31T06:25:00.025Z,3.05
2018-05-31T06:25:32.589Z,2.80
2018-05-31T06:26:05.138Z,2.75
2018-05-31T06:26:37.695Z,2.97
2018-05-31T06:27:10.269Z,2.47
2018-05-31T06:27:42.835Z,2.20
2018-05-31T06:28:15.934Z,2.82
2018-05-31T06:28:48.497Z,2.78
2018-05-31T06:29:21.065Z,2.90
2018-05-31T06:29:53.609Z,2.70
2018-05-31T06:30:26.188Z,2.70
2018-05-31T06:30:58.712Z,2.37
2018-05-31T06:31:32.055Z,2.47
2018-05-31T06:32:04.913Z,2.67
2018-05-31T06:32:37.468Z,2.20
2018-05-31T06:33:10.451Z,2.42
2018-05-31T06:33:43.018Z,2.75
2018-05-31T06:34:16.105Z,2.30
2018-05-31T06:34:48.654Z,2.33
2018-05-31T06:35:21.163Z,2.47
2018-05-31T06:35:53.797Z,2.12
2018-05-31T06:36:26.321Z,2.30
2018-05-31T06:36:58.877Z,2.53
2018-05-31T06:37:31.437Z,2.10
2018-05-31T06:38:04.004Z,2.10
2018-05-31T06:38:36.553Z,2.40
2018-05-31T06:39:09.086Z,1.95
2018-05-31T06:39:41.645Z,2.37
2018-05-31T06:40:14.622Z,2.03
2018-05-31T06:40:47.163Z,2.10
2018-05-31T06:41:19.740Z,2.35
2018-05-31T06:41:52.268Z,1.95
2018-05-31T06:42:24.820Z,2.20
2018-05-31T06:42:57.384Z,2.40
2018-05-31T06:43:29.937Z,2.33
2018-05-31T06:44:02.459Z,2.33
2018-05-31T06:44:34.997Z,2.10
2018-05-31T06:45:07.552Z,1.95
2018-05-31T06:45:40.089Z,1.92
2018-05-31T06:46:12.634Z,1.87
2018-05-31T06:46:45.189Z,2.03
2018-05-31T06:47:17.716Z,2.20
2018-05-31T06:47:50.268Z,2.40
2018-05-31T06:48:22.811Z,2.37
2018-05-31T06:48:55.354Z,2.45
2018-05-31T06:49:27.888Z,1.90
2018-05-31T06:50:00.500Z,2.35
2018-05-31T06:50:33.054Z,2.80
2018-05-31T06:51:05.595Z,2.37
2018-05-31T06:51:38.107Z,2.53
2018-05-31T06:52:10.628Z,2.22
2018-05-31T06:52:43.171Z,2.40
2018-05-31T06:53:15.746Z,2.15
2018-05-31T06:53:48.275Z,2.40
2018-05-31T06:54:20.855Z,1.92
2018-05-31T06:54:53.409Z,2.20
2018-05-31T06:55:25.948Z,2.40
2018-05-31T06:55:59.251Z,2.17
2018-05-31T06:56:31.780Z,1.80
2018-05-31T06:57:04.317Z,1.90
2018-05-31T06:57:37.622Z,1.83
2018-05-31T06:58:10.148Z,1.62
2018-05-31T06:58:42.692Z,1.80
2018-05-31T06:59:15.213Z,1.80
2018-05-31T06:59:47.728Z,2.12
2018-05-31T07:00:20.249Z,2.03
2018-05-31T07:00:52.823Z,1.77
2018-05-31T07:01:25.365Z,1.83
2018-05-31T07:01:57.917Z,2.00
2018-05-31T07:02:30.500Z,1.85
2018-05-31T07:03:03.060Z,1.85
2018-05-31T07:03:35.606Z,2.17
2018-05-31T07:04:08.132Z,2.17
2018-05-31T07:04:40.694Z,2.00
2018-05-31T07:05:13.564Z,1.77
2018-05-31T07:05:46.105Z,1.52
2018-05-31T07:06:18.626Z,2.33
2018-05-31T07:06:51.182Z,1.90
2018-05-31T07:07:23.717Z,1.62
2018-05-31T07:07:56.306Z,2.00
2018-05-31T07:08:28.830Z,1.93
2018-05-31T07:09:01.371Z,2.10
2018-05-31T07:09:33.903Z,2.33
2018-05-31T07:10:06.431Z,2.12
2018-05-31T07:10:38.977Z,1.80
2018-05-31T07:11:11.539Z,2.10
2018-05-31T07:11:44.110Z,2.08
2018-05-31T07:12:16.645Z,2.22
2018-05-31T07:12:49.949Z,2.05